createdAt,value
2023-05-25T00:04:22.468Z,6.47
2023-05-25T00:06:58.790Z,7.93
2023-05-25T00:12:42.873Z,8.98
2023-05-25T00:15:14.718Z,8.02
2023-05-25T00:17:54.853Z,8.90
2023-05-25T00:20:41.044Z,6.68
2023-05-25T00:23:09.864Z,10.77
2023-05-25T00:25:43.082Z,6.10
2023-05-25T00:28:14.313Z,8.20
2023-05-25T00:30:53.541Z,6.63
2023-05-25T00:33:28.015Z,6.40
2023-05-25T00:35:57.677Z,5.07
2023-05-25T00:38:39.584Z,6.03
2023-05-25T00:41:24.323Z,5.32
2023-05-25T00:43:54.659Z,8.40
2023-05-25T00:46:27.631Z,9.10
2023-05-25T00:48:56.553Z,4.65
2023-05-25T00:51:25.823Z,9.05
2023-05-25T00:54:06.608Z,9.35
2023-05-25T00:56:39.120Z,17.00
2023-05-25T00:59:11.248Z,14.60
2023-05-25T01:02:21.864Z,10.73
2023-05-25T01:05:21.491Z,8.88
2023-05-25T01:08:02.302Z,11.88
2023-05-25T01:13:29.672Z,9.02
2023-05-25T01:16:16.303Z,11.60
2023-05-25T01:18:44.785Z,10.55
2023-05-25T01:22:02.191Z,8.88
2023-05-25T01:24:45.042Z,8.52
2023-05-25T01:31:05.420Z,14.38
2023-05-25T01:34:07.927Z,9.25
2023-05-25T01:36:37.384Z,11.90
2023-05-25T01:39:16.704Z,11.35
2023-05-25T01:41:45.332Z,11.55
2023-05-25T01:44:17.266Z,12.23
2023-05-25T01:46:49.560Z,12.52
2023-05-25T01:50:00.582Z,10.65
2023-05-25T01:52:36.088Z,9.10
2023-05-25T02:02:47.718Z,14.18
2023-05-25T02:05:16.509Z,15.25
2023-05-25T02:13:19.034Z,7.90
2023-05-25T02:15:48.649Z,13.68
2023-05-25T02:18:18.301Z,10.90
2023-05-25T02:20:52.192Z,11.88
2023-05-25T02:23:25.367Z,9.75
2023-05-25T02:26:03.323Z,13.20
2023-05-25T02:28:33.816Z,10.38
2023-05-25T02:31:20.742Z,10.00
2023-05-25T02:33:59.794Z,11.52
2023-05-25T02:36:46.215Z,8.40
2023-05-25T02:39:15.983Z,10.82
2023-05-25T02:41:50.813Z,9.68
2023-05-25T02:44:20.924Z,9.98
2023-05-25T02:46:50.340Z,10.65
2023-05-25T02:52:11.482Z,7.68
2023-05-25T03:00:51.028Z,7.10
2023-05-25T03:03:43.685Z,10.93
2023-05-25T03:06:16.321Z,7.43
2023-05-25T03:08:49.401Z,7.05
2023-05-25T03:11:34.799Z,9.40
2023-05-25T03:14:06.523Z,10.18
2023-05-25T03:16:53.975Z,8.45
2023-05-25T03:19:42.893Z,10.18
2023-05-25T03:22:22.241Z,4.47
2023-05-25T03:24:50.750Z,4.95
2023-05-25T03:27:22.083Z,6.72
2023-05-25T03:30:23.525Z,4.63
2023-05-25T03:33:00.618Z,4.65
2023-05-25T03:35:36.133Z,5.93
2023-05-25T03:38:24.996Z,9.05
2023-05-25T03:41:05.129Z,7.63
2023-05-25T03:43:39.415Z,11.13
2023-05-25T03:46:13.557Z,4.85
2023-05-25T03:48:49.453Z,14.65
2023-05-25T03:51:21.067Z,6.80
2023-05-25T03:53:56.984Z,6.18
2023-05-25T03:56:26.702Z,4.82
2023-05-25T03:58:58.126Z,7.57
2023-05-25T04:01:33.282Z,11.45
2023-05-25T04:04:11.729Z,7.05
2023-05-25T04:06:42.493Z,7.72
2023-05-25T04:09:11.656Z,8.38
2023-05-25T04:19:22.408Z,10.65
2023-05-25T04:21:59.932Z,5.90
2023-05-25T04:24:35.480Z,8.80
2023-05-25T04:30:45.953Z,5.15
2023-05-25T04:33:41.379Z,5.63
2023-05-25T04:36:19.648Z,6.05
2023-05-25T04:38:55.651Z,4.18
2023-05-25T04:41:30.326Z,3.90
2023-05-25T04:47:12.768Z,8.02
2023-05-25T04:49:44.670Z,5.82
2023-05-25T04:52:14.728Z,5.00
2023-05-25T04:58:24.250Z,5.95
2023-05-25T05:00:56.821Z,6.40
2023-05-25T05:03:31.073Z,6.28
2023-05-25T05:05:59.721Z,5.18
2023-05-25T05:08:35.022Z,7.65
2023-05-25T05:11:10.248Z,5.20
2023-05-25T05:16:37.121Z,4.68
2023-05-25T05:19:06.451Z,7.53
2023-05-25T05:21:35.230Z,9.10
2023-05-25T05:27:40.959Z,6.10
2023-05-25T05:30:23.801Z,8.38
2023-05-25T05:32:53.441Z,5.50
2023-05-25T05:35:24.952Z,6.68
2023-05-25T05:38:03.267Z,7.65
2023-05-25T05:46:13.904Z,10.07
2023-05-25T05:48:55.441Z,12.63
2023-05-25T05:55:48.759Z,13.90
2023-05-25T05:58:19.950Z,10.10
2023-05-25T06:04:05.949Z,8.57
2023-05-25T06:06:35.696Z,8.90
2023-05-25T06:09:19.793Z,6.82
2023-05-25T06:12:17.361Z,8.02
2023-05-25T06:15:00.831Z,6.22
2023-05-25T06:18:02.455Z,6.82
2023-05-25T06:25:10.674Z,5.35
2023-05-25T06:30:37.566Z,8.00
2023-05-25T06:33:15.160Z,7.57
2023-05-25T06:45:20.860Z,6.30
2023-05-25T06:47:50.288Z,5.70
2023-05-25T06:50:21.690Z,7.13
2023-05-25T06:52:52.668Z,5.35
2023-05-25T07:00:30.559Z,5.88
2023-05-25T07:03:34.480Z,12.48
2023-05-25T07:06:20.472Z,7.60
2023-05-25T07:09:41.885Z,6.05
2023-05-25T07:12:29.592Z,6.20
2023-05-25T07:14:58.762Z,8.80
2023-05-25T07:22:38.154Z,6.15
2023-05-25T07:25:07.603Z,5.72
2023-05-25T07:34:55.313Z,6.03
2023-05-25T07:37:24.336Z,6.63
2023-05-25T07:39:54.108Z,9.80
2023-05-25T07:42:23.187Z,9.23
2023-05-25T07:45:11.488Z,5.10
2023-05-25T07:47:42.049Z,5.47
2023-05-25T07:50:18.942Z,4.90
2023-05-25T07:56:20.777Z,6.50
2023-05-25T07:59:07.742Z,9.40
2023-05-25T08:01:39.490Z,7.60
2023-05-25T08:04:37.369Z,5.00
2023-05-25T08:07:11.414Z,5.40
2023-05-25T08:09:53.195Z,4.57
2023-05-25T08:15:28.775Z,5.47
2023-05-25T08:17:57.369Z,5.22
2023-05-25T08:20:40.406Z,7.15
2023-05-25T08:23:11.628Z,5.28
2023-05-25T08:25:45.542Z,5.15
2023-05-25T08:28:14.318Z,7.05
2023-05-25T08:30:49.690Z,5.70
2023-05-25T08:33:18.456Z,5.60
2023-05-25T08:36:22.544Z,5.53
2023-05-25T08:41:51.858Z,7.85
2023-05-25T08:44:25.717Z,6.82
2023-05-25T08:47:23.558Z,8.50
2023-05-25T08:49:52.962Z,7.75
2023-05-25T08:52:28.696Z,10.20
2023-05-25T08:54:58.044Z,5.95
2023-05-25T08:57:54.483Z,6.70
2023-05-25T09:00:43.119Z,7.22
2023-05-25T09:03:27.526Z,5.82
2023-05-25T09:10:57.616Z,5.90
2023-05-25T09:13:36.348Z,5.43
2023-05-25T09:16:26.931Z,9.70
2023-05-25T09:19:06.860Z,6.80
2023-05-25T09:21:40.146Z,6.32
2023-05-25T09:24:09.917Z,8.00
2023-05-25T09:26:46.375Z,6.22
2023-05-25T09:29:26.473Z,7.82
2023-05-25T09:35:23.815Z,5.65
2023-05-25T09:37:56.537Z,4.28
2023-05-25T09:40:51.163Z,6.07
2023-05-25T09:43:40.140Z,7.25
2023-05-25T09:46:12.639Z,4.07
2023-05-25T09:48:50.550Z,5.35
2023-05-25T09:51:34.517Z,4.00
2023-05-25T09:54:31.097Z,3.72
2023-05-25T09:57:17.171Z,3.38
2023-05-25T09:59:46.324Z,2.53
2023-05-25T10:02:16.113Z,3.85
2023-05-25T10:05:26.368Z,3.00
2023-05-25T10:11:48.383Z,3.30
2023-05-25T10:14:27.184Z,3.95
2023-05-25T10:17:11.265Z,3.60
2023-05-25T10:20:29.718Z,6.15
2023-05-25T10:23:18.978Z,6.40
2023-05-25T10:26:22.910Z,6.30
2023-05-25T10:28:56.494Z,3.30
2023-05-25T10:34:02.331Z,2.58
2023-05-25T10:36:31.482Z,6.28
2023-05-25T10:39:00.967Z,5.47
2023-05-25T10:41:29.995Z,10.35
2023-05-25T10:44:22.252Z,2.15
2023-05-25T10:46:54.540Z,2.38
2023-05-25T10:49:33.931Z,4.32
2023-05-25T10:52:04.328Z,3.50
2023-05-25T10:54:39.811Z,3.83
2023-05-25T10:57:24.418Z,1.80
2023-05-25T11:03:21.124Z,3.40
2023-05-25T11:05:54.248Z,2.15
2023-05-25T11:09:51.832Z,3.30
2023-05-25T11:12:30.221Z,1.58
2023-05-25T11:25:47.865Z,1.25
2023-05-25T11:31:02.568Z,1.33
2023-05-25T11:33:33.137Z,1.65
2023-05-25T11:36:04.239Z,1.52
2023-05-25T11:38:53.230Z,4.72
2023-05-25T11:41:36.737Z,1.48
2023-05-25T11:44:34.025Z,6.22
2023-05-25T11:47:35.716Z,1.55
2023-05-25T11:50:38.367Z,4.03
2023-05-25T11:53:21.296Z,1.58
2023-05-25T11:55:53.682Z,4.03
2023-05-25T12:02:07.164Z,5.30
2023-05-25T12:05:11.153Z,2.25
2023-05-25T12:08:07.979Z,2.33
2023-05-25T12:10:54.124Z,2.45
2023-05-25T12:13:34.990Z,1.50
2023-05-25T12:16:56.019Z,1.67
2023-05-25T12:19:34.942Z,4.80
2023-05-25T12:22:07.714Z,2.10
2023-05-25T12:24:37.608Z,2.08
2023-05-25T12:27:25.121Z,2.50
2023-05-25T12:29:55.702Z,2.47
2023-05-25T12:32:27.371Z,2.60
2023-05-25T12:35:08.439Z,2.22
2023-05-25T12:41:30.942Z,1.98
2023-05-25T12:44:00.938Z,4.50
2023-05-25T12:46:34.002Z,4.18
2023-05-25T12:49:06.760Z,1.63
2023-05-25T12:54:53.339Z,1.98
2023-05-25T12:57:49.819Z,3.45
2023-05-25T13:00:45.126Z,2.97
2023-05-25T13:04:54.191Z,3.13
2023-05-25T13:07:48.306Z,3.35
2023-05-25T13:10:25.693Z,7.30
2023-05-25T13:13:25.228Z,7.28
2023-05-25T13:15:54.129Z,2.75
2023-05-25T13:18:31.639Z,4.00
2023-05-25T13:23:48.881Z,3.35
2023-05-25T13:26:35.998Z,2.63
2023-05-25T13:29:10.604Z,3.08
2023-05-25T13:31:43.896Z,10.40
2023-05-25T13:34:23.595Z,4.57
2023-05-25T13:37:07.916Z,4.15
2023-05-25T13:39:55.555Z,3.47
2023-05-25T13:42:30.096Z,2.53
2023-05-25T13:45:04.796Z,3.50
2023-05-25T13:47:33.894Z,2.20
2023-05-25T13:52:51.915Z,3.75
2023-05-25T13:55:24.070Z,4.65
2023-05-25T14:03:39.550Z,3.47
2023-05-25T14:06:18.034Z,2.85
2023-05-25T14:08:59.397Z,2.05
2023-05-25T14:11:30.371Z,2.88
2023-05-25T14:13:59.017Z,2.65
2023-05-25T14:20:27.570Z,3.85
2023-05-25T14:23:38.510Z,5.43
2023-05-25T14:26:16.304Z,5.20
2023-05-25T14:28:45.658Z,3.85
2023-05-25T14:31:18.556Z,7.55
2023-05-25T14:39:51.964Z,5.80
2023-05-25T14:42:26.102Z,5.18
2023-05-25T14:45:39.907Z,7.50
2023-05-25T14:49:25.100Z,6.18
2023-05-25T14:52:11.841Z,3.60
2023-05-25T14:57:48.283Z,4.78
2023-05-25T15:00:43.692Z,9.50
2023-05-25T15:03:43.582Z,5.13
2023-05-25T15:06:43.484Z,5.85
2023-05-25T15:09:41.917Z,4.50
2023-05-25T15:12:19.749Z,6.03
2023-05-25T15:14:49.039Z,7.72
2023-05-25T15:17:25.606Z,3.72
2023-05-25T15:20:13.556Z,4.47
2023-05-25T15:22:42.522Z,3.80
2023-05-25T15:25:27.965Z,6.03
2023-05-25T15:28:15.145Z,8.32
2023-05-25T15:31:33.995Z,7.18
2023-05-25T15:35:02.362Z,4.05
2023-05-25T15:37:42.299Z,5.03
2023-05-25T15:40:12.714Z,3.80
2023-05-25T15:43:07.502Z,6.72
2023-05-25T15:45:36.725Z,5.43
2023-05-25T15:48:13.213Z,5.68
2023-05-25T15:50:51.641Z,3.42
2023-05-25T15:53:23.667Z,5.63
2023-05-25T15:55:56.597Z,4.63
2023-05-25T15:58:34.825Z,4.78
2023-05-25T16:01:06.212Z,5.32
2023-05-25T16:03:36.838Z,6.28
2023-05-25T16:06:16.371Z,3.38
2023-05-25T16:08:48.606Z,6.03
2023-05-25T16:14:06.975Z,5.00
2023-05-25T16:16:36.170Z,4.05
2023-05-25T16:19:13.824Z,5.78
2023-05-25T16:21:49.995Z,6.93
2023-05-25T16:24:33.659Z,2.85
2023-05-25T16:27:14.197Z,4.88
2023-05-25T16:29:59.782Z,6.75
2023-05-25T16:32:47.076Z,6.13
2023-05-25T16:35:16.326Z,5.03
2023-05-25T16:37:47.768Z,4.30
2023-05-25T16:40:17.915Z,6.05
2023-05-25T16:42:47.316Z,5.75
2023-05-25T16:45:20.885Z,6.00
2023-05-25T16:47:59.310Z,5.60
2023-05-25T16:50:31.845Z,11.50
2023-05-25T16:53:12.053Z,6.78
2023-05-25T16:56:00.675Z,5.30
2023-05-25T16:58:31.613Z,4.93
2023-05-25T17:01:00.616Z,4.88
2023-05-25T17:07:46.736Z,6.53
2023-05-25T17:10:26.388Z,5.75
2023-05-25T17:13:29.587Z,4.90
2023-05-25T17:16:08.034Z,6.22
2023-05-25T17:18:48.272Z,5.50
2023-05-25T17:24:38.359Z,3.92
2023-05-25T17:27:09.627Z,4.35
2023-05-25T17:29:47.323Z,8.88
2023-05-25T17:35:16.362Z,8.30
2023-05-25T17:53:02.836Z,4.20
2023-05-25T18:00:05.383Z,5.45
2023-05-25T18:07:56.987Z,7.38
2023-05-25T18:10:56.517Z,7.38
2023-05-25T18:13:54.280Z,13.73
2023-05-25T18:16:26.454Z,8.85
2023-05-25T18:24:21.614Z,7.63
2023-05-25T18:26:51.686Z,7.95
2023-05-25T18:29:33.421Z,9.32
2023-05-25T18:32:11.163Z,5.93
2023-05-25T18:34:48.722Z,7.43
2023-05-25T18:37:19.249Z,5.85
2023-05-25T18:43:34.577Z,13.80
2023-05-25T18:46:25.892Z,3.80
2023-05-25T18:49:00.075Z,11.25
2023-05-25T19:01:43.322Z,8.30
2023-05-25T19:04:47.532Z,8.68
2023-05-25T19:08:57.250Z,10.97
2023-05-25T19:11:35.806Z,7.13
2023-05-25T19:20:05.087Z,7.28
2023-05-25T19:27:23.884Z,6.28
2023-05-25T19:34:43.755Z,4.63
2023-05-25T19:40:51.573Z,5.50
2023-05-25T19:43:22.039Z,5.15
2023-05-25T19:46:04.369Z,5.82
2023-05-25T19:51:45.949Z,6.28
2023-05-25T19:55:22.742Z,6.50
2023-05-25T20:01:10.092Z,5.47
2023-05-25T20:04:12.322Z,10.38
2023-05-25T20:07:18.883Z,10.07
2023-05-25T20:09:53.435Z,3.67
2023-05-25T20:22:57.794Z,8.45
2023-05-25T20:25:28.456Z,6.65
2023-05-25T20:28:25.833Z,6.78
2023-05-25T20:30:57.112Z,10.30
2023-05-25T20:40:17.463Z,5.80
2023-05-25T20:43:09.453Z,6.07
2023-05-25T20:49:36.194Z,7.25
2023-05-25T20:52:30.785Z,5.22
2023-05-25T20:55:24.180Z,5.80
2023-05-25T20:58:10.158Z,6.05
2023-05-25T21:00:54.928Z,6.15
2023-05-25T21:17:44.946Z,6.57
2023-05-25T21:20:21.194Z,4.35
2023-05-25T21:23:02.453Z,10.90
2023-05-25T21:25:32.286Z,10.85
2023-05-25T21:28:02.622Z,8.95
2023-05-25T21:30:49.698Z,5.05
2023-05-25T21:33:23.890Z,7.82
2023-05-25T21:35:52.511Z,9.20
2023-05-25T21:38:26.239Z,9.73
2023-05-25T21:41:00.887Z,5.47
2023-05-25T21:43:29.890Z,6.65
2023-05-25T21:46:00.812Z,5.32
2023-05-25T21:48:39.592Z,7.80
2023-05-25T21:51:19.598Z,6.10
2023-05-25T21:54:20.781Z,6.82
2023-05-25T21:56:49.550Z,7.90
2023-05-25T22:02:18.783Z,7.68
2023-05-25T22:07:32.266Z,8.57
2023-05-25T22:10:12.204Z,8.68
2023-05-25T22:12:40.966Z,12.63
2023-05-25T22:15:21.113Z,11.35
2023-05-25T22:17:55.397Z,11.27
2023-05-25T22:20:26.250Z,12.70
2023-05-25T22:23:12.393Z,17.02
2023-05-25T22:25:50.435Z,11.65
2023-05-25T22:28:19.074Z,10.57
2023-05-25T22:30:52.830Z,14.05
2023-05-25T22:33:29.737Z,14.27
2023-05-25T22:36:03.294Z,14.18
2023-05-25T22:38:32.732Z,12.15
2023-05-25T22:41:02.575Z,12.18
2023-05-25T22:46:45.280Z,12.45
2023-05-25T22:59:04.761Z,11.75
2023-05-25T23:01:33.392Z,12.45
2023-05-25T23:04:34.484Z,11.45
2023-05-25T23:07:03.108Z,12.07
2023-05-25T23:09:59.748Z,10.27
2023-05-25T23:12:32.553Z,15.43
2023-05-25T23:21:34.460Z,9.80
2023-05-25T23:24:09.279Z,14.05
2023-05-25T23:26:52.212Z,8.85
2023-05-25T23:29:24.445Z,14.32
2023-05-25T23:31:52.966Z,10.05
2023-05-25T23:34:26.106Z,12.05
2023-05-25T23:37:00.651Z,11.02
2023-05-25T23:52:15.198Z,10.43
2023-05-25T23:55:09.496Z,12.20
